Time;durP1;ratioP1;P1;durP2;ratioP2;P2;SDS_P1;SDS_P2;PMS_P1;PMS_P2;Temp;Humidity;BMP_temperature;BMP_pressure;BME280_temperature;BME280_humidity;BME280_pressure;Samples;Min_cycle;Max_cycle;Signal;HPM_P1;HPM_P2
2022/02/02 00:02:36;;;;;;;3.23;0.70;;;5.60;99.90;;;;;;5043375;28;20204;-92
2022/02/02 00:05:18;;;;;;;1.90;0.80;;;5.60;99.90;;;;;;5059435;28;20231;-92
2022/02/02 00:07:57;;;;;;;0.93;0.60;;;5.50;99.90;;;;;;5058538;28;20195;-92
2022/02/02 00:10:55;;;;;;;2.13;0.70;;;5.40;99.90;;;;;;5059439;28;20247;-93
2022/02/02 00:13:39;;;;;;;0.90;0.80;;;5.40;99.90;;;;;;5059221;28;20181;-90
2022/02/02 00:16:21;;;;;;;2.17;0.80;;;5.30;99.90;;;;;;5058798;28;20205;-92
2022/02/02 00:18:57;;;;;;;0.60;0.60;;;5.30;99.90;;;;;;5058292;28;20201;-92
2022/02/02 00:21:41;;;;;;;4.20;0.83;;;5.30;99.90;;;;;;5058593;28;20275;-93
2022/02/02 00:24:22;;;;;;;1.63;0.80;;;5.30;99.90;;;;;;5056009;28;20181;-91
2022/02/02 00:26:56;;;;;;;1.30;0.80;;;5.30;99.90;;;;;;5053768;28;20684;-93
2022/02/02 00:29:34;;;;;;;1.50;0.87;;;5.40;99.90;;;;;;5053365;28;20247;-94
2022/02/02 00:32:09;;;;;;;2.73;0.83;;;5.40;99.90;;;;;;5053298;28;20209;-93
2022/02/02 00:34:40;;;;;;;1.30;0.77;;;5.30;99.90;;;;;;5052375;28;20205;-93
2022/02/02 00:37:14;;;;;;;0.90;0.40;;;5.30;99.90;;;;;;5051963;28;20209;-91
2022/02/02 00:39:48;;;;;;;2.50;0.73;;;5.20;99.90;;;;;;5053825;28;20213;-92
2022/02/02 00:42:19;;;;;;;2.17;1.20;;;5.10;99.90;;;;;;5051711;28;20225;-91
2022/02/02 00:44:54;;;;;;;3.20;0.67;;;5.10;99.90;;;;;;5052057;28;20208;-91
2022/02/02 00:47:26;;;;;;;1.10;0.70;;;5.00;99.90;;;;;;5042895;28;20200;-93
2022/02/02 00:52:34;;;;;;;3.50;0.93;;;5.00;99.90;;;;;;5378802;23;20311;-92
2022/02/02 00:55:08;;;;;;;3.13;0.80;;;5.00;99.90;;;;;;5051824;28;20205;-93
2022/02/02 00:57:39;;;;;;;1.00;0.87;;;5.00;99.90;;;;;;5056633;28;20215;-93
2022/02/02 01:00:12;;;;;;;0.77;0.63;;;5.00;99.90;;;;;;5057783;28;20188;-92
2022/02/02 01:02:43;;;;;;;1.23;0.90;;;4.90;99.90;;;;;;5056583;28;20196;-93
2022/02/02 01:05:15;;;;;;;2.80;0.80;;;4.90;99.90;;;;;;5054004;28;20235;-91
2022/02/02 01:10:40;;;;;;;1.57;1.10;;;4.90;99.90;;;;;;5053102;28;20263;-91
2022/02/02 01:13:41;;;;;;;2.97;0.70;;;4.90;99.90;;;;;;5053364;28;20205;-90
2022/02/02 01:21:58;;;;;;;3.00;0.93;;;4.80;99.90;;;;;;5367761;23;20258;-92
2022/02/02 01:30:12;;;;;;;1.97;0.70;;;4.60;99.90;;;;;;5044530;28;20233;-92
2022/02/02 01:32:46;;;;;;;2.33;0.77;;;4.50;99.90;;;;;;5050555;28;20192;-93
2022/02/02 01:35:19;;;;;;;1.47;0.87;;;4.60;99.90;;;;;;5051312;28;20205;-92
2022/02/02 01:37:51;;;;;;;2.13;0.87;;;4.60;99.90;;;;;;5051081;28;20263;-92
2022/02/02 01:40:28;;;;;;;3.70;1.03;;;4.60;99.90;;;;;;5051723;28;20242;-92
2022/02/02 01:43:07;;;;;;;2.50;0.90;;;4.60;99.90;;;;;;5050404;28;20205;-93
2022/02/02 01:45:41;;;;;;;2.80;0.80;;;4.60;99.90;;;;;;5051705;28;20212;-93
2022/02/02 01:51:07;;;;;;;2.40;1.10;;;4.50;99.90;;;;;;5095094;23;20244;-93
2022/02/02 01:53:53;;;;;;;2.40;1.10;;;4.60;99.90;;;;;;5035292;28;20209;-90
2022/02/02 01:56:25;;;;;;;2.53;1.13;;;4.50;99.90;;;;;;5035248;28;20197;-92
2022/02/02 01:59:05;;;;;;;2.87;1.30;;;4.50;99.90;;;;;;5032155;28;20181;-92
2022/02/02 02:17:26;;;;;;;2.20;1.33;;;4.50;99.90;;;;;;5886415;22;6451602;-89
2022/02/02 02:19:58;;;;;;;1.77;1.37;;;4.50;99.90;;;;;;6249833;23;20198;-93
2022/02/02 02:22:38;;;;;;;2.30;1.13;;;4.50;99.90;;;;;;6222020;23;20218;-93
2022/02/02 02:25:11;;;;;;;3.17;1.20;;;4.50;99.90;;;;;;6250230;22;20175;-91
2022/02/02 02:27:43;;;;;;;1.57;1.00;;;4.40;99.90;;;;;;6250288;22;20202;-93
2022/02/02 02:39:07;;;;;;;2.90;2.10;;;3.90;99.90;;;;;;6184397;23;20660;-94
2022/02/02 02:55:54;;;;;;;2.20;1.83;;;4.10;99.90;;;;;;6306399;22;20174;-92
2022/02/02 02:58:45;;;;;;;2.67;1.20;;;4.00;99.90;;;;;;6299793;22;20189;-93
2022/02/02 03:01:28;;;;;;;2.17;1.50;;;4.00;99.90;;;;;;6306913;22;20194;-91
2022/02/02 03:32:36;;;;;;;2.33;1.20;;;4.00;99.90;;;;;;6297587;22;20187;-93
2022/02/02 03:35:14;;;;;;;1.77;0.90;;;4.00;99.90;;;;;;6297615;22;20179;-93
2022/02/02 03:51:43;;;;;;;2.47;1.20;;;4.00;99.90;;;;;;6295599;22;20178;-93
2022/02/02 03:54:44;;;;;;;2.77;1.27;;;4.00;99.90;;;;;;6300929;22;20168;-91
2022/02/02 03:57:32;;;;;;;2.73;1.30;;;3.90;99.90;;;;;;6297848;22;20179;-92
2022/02/02 04:00:24;;;;;;;3.40;1.37;;;3.80;99.90;;;;;;6299162;22;20183;-93
2022/02/02 04:11:16;;;;;;;4.93;4.07;;;3.60;99.90;;;;;;6295433;22;20260;-92
2022/02/02 04:56:20;;;;;;;4.80;1.60;;;3.60;99.90;;;;;;6270264;22;20193;-92
2022/02/02 04:59:02;;;;;;;3.47;1.40;;;3.60;99.90;;;;;;6269081;23;20278;-94
2022/02/02 05:07:30;;;;;;;3.40;1.70;;;3.40;99.90;;;;;;6237039;23;20176;-93
2022/02/02 05:10:12;;;;;;;2.60;1.13;;;3.40;99.90;;;;;;6226052;23;20172;-93
2022/02/02 05:13:36;;;;;;;4.43;1.30;;;3.40;99.90;;;;;;6232323;23;20230;-93
2022/02/02 05:16:00;;;;;;;2.63;1.40;;;3.40;99.90;;;;;;6236187;23;20198;-92
2022/02/02 05:18:59;;;;;;;5.87;1.70;;;3.40;99.90;;;;;;6230662;23;20180;-92
2022/02/02 05:41:54;;;;;;;2.43;1.13;;;3.50;99.90;;;;;;6226956;23;20223;-91
2022/02/02 05:44:50;;;;;;;4.03;1.70;;;3.50;99.90;;;;;;6223995;23;20208;-92
2022/02/02 05:50:34;;;;;;;2.50;1.20;;;3.50;99.90;;;;;;6224043;23;20168;-94
2022/02/02 05:53:06;;;;;;;1.63;1.27;;;3.50;99.90;;;;;;6223007;23;20180;-92
2022/02/02 05:55:40;;;;;;;1.47;1.07;;;3.50;99.90;;;;;;6223946;23;20188;-92
2022/02/02 05:58:12;;;;;;;2.80;1.27;;;3.50;99.90;;;;;;6223389;23;20175;-92
2022/02/02 06:00:43;;;;;;;1.57;1.27;;;3.40;99.90;;;;;;6222908;23;20199;-93
2022/02/02 06:03:18;;;;;;;4.87;1.90;;;3.40;99.90;;;;;;6233127;23;20173;-92
2022/02/02 06:05:51;;;;;;;3.20;1.50;;;3.40;99.90;;;;;;6240462;23;20187;-91
2022/02/02 06:08:23;;;;;;;3.30;1.73;;;3.40;99.90;;;;;;6209534;22;20206;-93
2022/02/02 06:11:00;;;;;;;2.20;1.60;;;3.40;99.90;;;;;;6235484;23;20169;-92
2022/02/02 06:13:40;;;;;;;2.27;1.33;;;3.50;99.90;;;;;;6236598;23;20191;-93
2022/02/02 06:16:12;;;;;;;5.70;1.50;;;3.40;99.90;;;;;;6208538;23;20187;-89
2022/02/02 06:18:46;;;;;;;3.53;1.80;;;3.40;99.90;;;;;;6234693;23;20172;-91
2022/02/02 06:21:21;;;;;;;2.80;1.20;;;3.40;99.90;;;;;;6236646;22;20164;-92
2022/02/02 06:23:59;;;;;;;2.47;1.40;;;3.30;99.90;;;;;;6215938;23;20199;-91
2022/02/02 06:26:32;;;;;;;1.47;1.20;;;3.40;99.90;;;;;;6238425;23;20160;-93
2022/02/02 06:29:06;;;;;;;2.33;1.40;;;3.30;99.90;;;;;;6232298;23;20176;-93
2022/02/02 06:31:39;;;;;;;2.77;1.20;;;3.30;99.90;;;;;;6225203;23;20220;-93
2022/02/02 06:34:14;;;;;;;1.77;1.10;;;3.30;99.90;;;;;;6198204;23;20176;-94
2022/02/02 06:36:47;;;;;;;2.10;1.10;;;3.30;99.90;;;;;;6223308;23;20176;-93
2022/02/02 06:39:19;;;;;;;2.53;0.90;;;3.30;99.90;;;;;;6228983;22;20188;-91
2022/02/02 06:41:54;;;;;;;1.60;0.90;;;3.20;99.90;;;;;;6284428;22;20183;-93
2022/02/02 06:44:26;;;;;;;1.63;1.00;;;3.20;99.90;;;;;;6284581;22;20194;-94
2022/02/02 06:46:57;;;;;;;2.10;0.87;;;3.20;99.90;;;;;;6283632;22;20245;-94
2022/02/02 06:49:31;;;;;;;1.30;0.90;;;3.10;99.90;;;;;;6283988;22;20240;-94
2022/02/02 06:52:07;;;;;;;1.93;1.13;;;3.00;99.90;;;;;;6288252;22;20174;-94
2022/02/02 06:54:53;;;;;;;1.67;1.00;;;3.00;99.90;;;;;;6286506;22;20167;-94
2022/02/02 06:57:41;;;;;;;1.93;1.10;;;2.90;99.90;;;;;;6285531;22;20167;-94
2022/02/02 07:00:22;;;;;;;1.53;0.93;;;2.80;99.90;;;;;;6286440;22;20606;-94
2022/02/02 07:03:09;;;;;;;1.73;0.80;;;2.70;99.90;;;;;;6287043;22;20178;-94
2022/02/02 07:05:54;;;;;;;2.03;0.97;;;2.60;99.90;;;;;;6298428;22;20202;-93
2022/02/02 07:08:37;;;;;;;2.27;0.90;;;2.60;99.90;;;;;;6302987;22;20174;-94
2022/02/02 07:11:18;;;;;;;1.83;1.00;;;2.60;99.90;;;;;;6304322;22;20159;-91
2022/02/02 07:14:01;;;;;;;2.43;1.30;;;2.60;99.90;;;;;;6301923;22;20174;-92
2022/02/02 07:16:44;;;;;;;2.07;1.20;;;2.60;99.90;;;;;;6294102;22;20175;-93
2022/02/02 07:19:28;;;;;;;2.37;1.63;;;2.60;99.90;;;;;;6284289;22;20175;-93
2022/02/02 07:25:24;;;;;;;2.37;1.87;;;2.60;99.90;;;;;;6284901;22;20214;-93
2022/02/02 07:28:03;;;;;;;3.30;2.10;;;2.60;99.90;;;;;;6286030;22;20179;-95
2022/02/02 07:30:52;;;;;;;2.83;1.83;;;2.50;99.90;;;;;;6284253;22;20174;-92
2022/02/02 07:33:29;;;;;;;3.03;2.00;;;2.40;99.90;;;;;;6283977;22;20167;-94
2022/02/02 07:36:09;;;;;;;2.53;1.60;;;2.40;99.90;;;;;;6285521;22;20178;-92
2022/02/02 07:39:05;;;;;;;3.17;2.10;;;2.30;99.90;;;;;;6284633;22;20205;-93
2022/02/02 07:41:41;;;;;;;2.40;2.00;;;2.30;99.90;;;;;;6284485;22;20209;-94
2022/02/02 07:44:19;;;;;;;2.07;1.63;;;2.30;99.90;;;;;;6256256;22;20193;-92
2022/02/02 07:46:52;;;;;;;4.57;2.13;;;2.30;99.90;;;;;;6281551;22;20560;-92
2022/02/02 07:49:33;;;;;;;3.33;2.00;;;2.20;99.90;;;;;;6283025;22;20207;-92
2022/02/02 07:52:06;;;;;;;3.87;1.87;;;2.20;99.90;;;;;;6283279;22;20167;-93
2022/02/02 07:54:41;;;;;;;3.90;2.77;;;2.30;99.90;;;;;;6288900;22;20632;-94
2022/02/02 07:57:30;;;;;;;4.13;2.10;;;2.30;99.90;;;;;;6284417;22;20171;-93
2022/02/02 08:00:08;;;;;;;14.37;2.70;;;2.30;99.90;;;;;;6262519;22;20260;-94
2022/02/02 08:02:54;;;;;;;3.07;2.40;;;2.20;99.90;;;;;;6282230;22;20175;-93
2022/02/02 08:05:26;;;;;;;4.73;2.60;;;2.10;99.90;;;;;;6283178;22;20680;-93
2022/02/02 08:08:11;;;;;;;6.73;2.47;;;2.10;99.90;;;;;;6291162;22;20636;-94
2022/02/02 08:10:47;;;;;;;4.50;2.33;;;2.00;99.90;;;;;;6285023;22;20167;-92
2022/02/02 08:13:22;;;;;;;5.57;2.87;;;1.90;99.90;;;;;;6282362;22;20179;-93
2022/02/02 08:16:00;;;;;;;2.70;2.37;;;1.90;99.90;;;;;;6287790;22;20201;-93
2022/02/02 08:18:30;;;;;;;3.73;2.40;;;1.80;99.90;;;;;;6285428;22;20167;-93
2022/02/02 08:21:01;;;;;;;5.27;2.53;;;1.70;99.90;;;;;;6290904;22;20195;-93
2022/02/02 08:23:32;;;;;;;2.90;2.30;;;1.60;99.90;;;;;;6283611;22;20228;-94
2022/02/02 08:26:13;;;;;;;4.03;2.60;;;1.50;99.90;;;;;;6282732;22;20199;-93
2022/02/02 08:28:44;;;;;;;5.47;2.50;;;1.50;99.90;;;;;;6281595;22;20237;-93
2022/02/02 08:31:16;;;;;;;3.57;2.40;;;1.40;99.90;;;;;;6286846;22;20175;-93
2022/02/02 08:33:49;;;;;;;4.67;2.77;;;1.30;99.90;;;;;;6281552;22;20186;-93
2022/02/02 08:36:21;;;;;;;4.20;2.60;;;1.20;99.90;;;;;;6256426;22;20266;-93
2022/02/02 08:39:14;;;;;;;3.53;2.40;;;1.20;99.90;;;;;;6286126;22;20167;-94
2022/02/02 08:41:50;;;;;;;4.67;2.33;;;1.20;99.90;;;;;;6284822;22;20186;-94
2022/02/02 08:44:25;;;;;;;3.60;2.70;;;1.10;99.90;;;;;;6281456;22;20223;-94
2022/02/02 08:47:00;;;;;;;3.93;2.57;;;1.10;99.90;;;;;;6281447;22;20189;-93
2022/02/02 08:49:38;;;;;;;11.13;2.83;;;1.10;99.90;;;;;;6282772;22;20166;-94
2022/02/02 08:52:10;;;;;;;5.67;2.70;;;1.10;99.90;;;;;;6281606;22;20179;-94
2022/02/02 08:54:47;;;;;;;4.13;2.80;;;1.00;99.90;;;;;;6281931;22;20167;-95
2022/02/02 09:00:21;;;;;;;2.70;2.40;;;1.10;99.90;;;;;;6281535;22;20217;-94
2022/02/02 09:05:19;;;;;;;5.50;2.80;;;1.00;99.90;;;;;;6281434;22;20179;-94
2022/02/02 09:05:45;;;;;;;3.77;3.00;;;1.10;99.90;;;;;;6281444;22;20222;-93
2022/02/02 09:08:19;;;;;;;4.80;2.90;;;1.10;99.90;;;;;;6287232;22;20228;-94
2022/02/02 09:23:01;;;;;;;3.47;2.87;;;1.20;99.90;;;;;;6303368;22;20155;-93
2022/02/02 09:25:11;;;;;;;4.10;2.70;;;1.20;99.90;;;;;;6303370;22;20216;-93
2022/02/02 09:36:14;;;;;;;2.90;2.30;;;1.30;99.90;;;;;;6285301;22;20174;-93
2022/02/02 09:38:46;;;;;;;4.00;3.10;;;1.40;99.90;;;;;;6284331;22;20182;-94
2022/02/02 09:44:21;;;;;;;3.73;2.77;;;1.50;99.90;;;;;;6159316;23;20170;-93
2022/02/02 09:47:00;;;;;;;6.37;3.53;;;1.60;99.90;;;;;;6259121;22;20256;-94
2022/02/02 09:49:39;;;;;;;3.40;2.87;;;1.60;99.90;;;;;;6283178;22;20167;-95
2022/02/02 09:52:13;;;;;;;3.80;2.83;;;1.60;99.90;;;;;;6284577;22;20232;-93
2022/02/02 09:54:57;;;;;;;3.10;2.57;;;1.60;99.90;;;;;;6285652;22;20251;-94
2022/02/02 10:03:36;;;;;;;5.50;2.77;;;1.70;99.90;;;;;;6281231;22;20210;-93
2022/02/02 10:06:17;;;;;;;4.23;2.60;;;1.70;99.90;;;;;;6280128;22;20194;-95
2022/02/02 10:12:04;;;;;;;4.33;3.27;;;1.70;99.90;;;;;;6282723;22;20163;-93
2022/02/02 10:14:39;;;;;;;3.70;2.53;;;1.70;99.90;;;;;;6282319;22;20183;-92
2022/02/02 10:17:12;;;;;;;2.67;2.23;;;1.70;99.90;;;;;;6254087;22;20202;-93
2022/02/02 10:19:45;;;;;;;4.77;2.67;;;1.70;99.90;;;;;;6281659;22;20213;-92
2022/02/02 10:22:28;;;;;;;4.37;2.70;;;1.70;99.90;;;;;;6282693;22;20175;-92
2022/02/02 10:25:04;;;;;;;3.83;2.77;;;1.60;99.90;;;;;;6285980;22;20167;-93
2022/02/02 10:27:36;;;;;;;6.00;3.17;;;1.70;99.90;;;;;;6260978;22;20248;-94
2022/02/02 10:30:18;;;;;;;2.90;2.43;;;1.60;99.90;;;;;;6302176;22;20171;-92
2022/02/02 10:32:52;;;;;;;3.70;2.60;;;1.70;99.90;;;;;;6301564;22;20229;-93
2022/02/02 10:35:40;;;;;;;3.23;2.20;;;1.70;99.90;;;;;;6287728;22;20193;-93
2022/02/02 10:38:22;;;;;;;4.13;2.53;;;1.70;99.90;;;;;;6286971;22;20626;-92
2022/02/02 10:40:57;;;;;;;4.90;3.20;;;1.70;99.90;;;;;;6287984;22;20209;-93
2022/02/02 10:43:34;;;;;;;2.93;2.50;;;1.70;99.90;;;;;;6290126;22;20175;-93
2022/02/02 10:46:15;;;;;;;3.60;2.60;;;1.70;99.90;;;;;;6287140;22;20194;-92
2022/02/02 10:48:51;;;;;;;3.77;2.70;;;1.70;99.90;;;;;;6290315;22;20194;-93
2022/02/02 10:51:37;;;;;;;5.47;2.90;;;1.70;99.90;;;;;;6302640;22;20155;-93
2022/02/02 10:54:21;;;;;;;5.40;3.03;;;1.70;99.90;;;;;;6304000;22;20167;-93
2022/02/02 10:57:06;;;;;;;4.13;2.30;;;1.80;99.90;;;;;;6302643;22;20197;-93
2022/02/02 11:08:07;;;;;;;3.97;2.83;;;1.80;99.90;;;;;;6283140;22;20501;-94
2022/02/02 11:10:38;;;;;;;2.83;2.27;;;1.80;99.90;;;;;;6283913;22;20174;-93
2022/02/02 11:13:14;;;;;;;3.37;2.43;;;1.70;99.90;;;;;;6286190;22;20241;-94
2022/02/02 11:15:50;;;;;;;4.67;3.43;;;1.70;99.90;;;;;;6285808;22;20186;-94
2022/02/02 11:18:25;;;;;;;3.60;2.40;;;1.80;99.90;;;;;;6286329;22;20209;-92
2022/02/02 11:20:56;;;;;;;3.97;2.07;;;1.80;99.90;;;;;;6284812;22;20195;-92
2022/02/02 11:23:43;;;;;;;4.57;2.40;;;1.80;99.90;;;;;;6300262;22;20173;-91
2022/02/02 11:26:17;;;;;;;4.93;2.63;;;1.80;99.90;;;;;;6304316;22;20183;-94
2022/02/02 11:28:51;;;;;;;4.33;2.50;;;1.80;99.90;;;;;;6302196;22;20178;-94
2022/02/02 11:31:22;;;;;;;3.27;2.33;;;1.70;99.90;;;;;;6285427;22;20170;-94
2022/02/02 11:33:56;;;;;;;3.67;2.50;;;1.70;99.90;;;;;;6285711;22;20171;-94
2022/02/02 11:36:32;;;;;;;5.57;2.33;;;1.60;99.90;;;;;;6286662;22;20178;-94
2022/02/02 11:39:08;;;;;;;3.67;2.43;;;1.60;99.90;;;;;;6284354;22;20177;-94
2022/02/02 11:41:52;;;;;;;3.87;2.50;;;1.50;99.90;;;;;;6304661;22;20186;-94
2022/02/02 11:44:49;;;;;;;3.40;2.23;;;1.40;99.90;;;;;;6304606;22;20155;-93
2022/02/02 11:47:45;;;;;;;2.67;2.13;;;1.30;99.90;;;;;;6284560;22;20286;-94
2022/02/02 11:50:17;;;;;;;4.80;2.90;;;1.30;99.90;;;;;;6283538;22;20194;-93
2022/02/02 11:52:50;;;;;;;3.20;2.40;;;1.20;99.90;;;;;;6282939;22;20178;-94
2022/02/02 11:55:47;;;;;;;3.93;2.33;;;1.10;99.90;;;;;;6283893;22;20175;-93
2022/02/02 11:58:33;;;;;;;5.40;2.17;;;1.10;99.90;;;;;;6281167;22;20250;-92
2022/02/02 12:01:11;;;;;;;4.60;2.37;;;1.10;99.90;;;;;;6286025;22;20509;-94
2022/02/02 12:09:27;;;;;;;3.27;2.60;;;1.00;99.90;;;;;;6281979;22;20194;-94
2022/02/02 12:50:00;;;;;;;7.93;3.00;;;1.30;99.90;;;;;;6158622;23;20178;-93
2022/02/02 12:58:14;;;;;;;5.50;2.90;;;1.30;99.90;;;;;;6266224;22;20597;-95
2022/02/02 13:01:08;;;;;;;4.03;2.30;;;1.30;99.90;;;;;;6281620;22;20627;-94
2022/02/02 13:03:40;;;;;;;4.33;2.20;;;1.30;99.90;;;;;;6285378;22;20171;-95
2022/02/02 13:06:15;;;;;;;3.90;2.10;;;1.30;99.90;;;;;;6281887;22;20480;-94
2022/02/02 13:08:51;;;;;;;2.63;1.97;;;1.20;99.90;;;;;;6255584;22;20170;-94
2022/02/02 13:11:31;;;;;;;5.43;1.40;;;1.20;99.90;;;;;;6257605;22;20174;-95
2022/02/02 13:14:10;;;;;;;1.70;1.33;;;1.20;99.90;;;;;;6281968;22;20167;-93
2022/02/02 13:16:46;;;;;;;2.20;1.47;;;1.20;99.90;;;;;;6283882;22;20182;-92
2022/02/02 13:19:27;;;;;;;2.83;1.40;;;1.20;99.90;;;;;;6261223;22;20199;-94
2022/02/02 13:22:07;;;;;;;4.13;1.33;;;1.10;99.90;;;;;;6287140;22;20217;-94
2022/02/02 13:24:38;;;;;;;3.53;1.40;;;1.10;99.90;;;;;;6287912;22;20193;-94
2022/02/02 13:27:18;;;;;;;2.30;1.47;;;1.10;99.90;;;;;;6288478;22;20291;-94
2022/02/02 13:29:53;;;;;;;1.57;1.40;;;1.10;99.90;;;;;;6286574;22;20189;-94
2022/02/02 13:32:38;;;;;;;2.77;1.47;;;1.10;99.90;;;;;;6283828;22;20234;-93
2022/02/02 13:35:17;;;;;;;2.00;1.20;;;1.10;99.90;;;;;;6282235;22;20174;-93
2022/02/02 13:38:02;;;;;;;1.40;1.07;;;1.10;99.90;;;;;;6280136;22;20167;-93
2022/02/02 13:52:26;;;;;;;2.27;1.20;;;1.00;99.90;;;;;;6283187;22;20168;-93
2022/02/02 13:55:45;;;;;;;1.87;1.30;;;1.00;99.90;;;;;;6287252;22;20222;-94
2022/02/02 13:58:41;;;;;;;2.47;0.90;;;1.00;99.90;;;;;;6288975;22;20467;-93
2022/02/02 14:01:20;;;;;;;1.93;1.40;;;1.00;99.90;;;;;;6303383;22;20218;-93
2022/02/02 14:04:08;;;;;;;1.37;1.00;;;1.00;99.90;;;;;;6303710;22;20186;-93
2022/02/02 14:06:50;;;;;;;1.70;1.20;;;1.00;99.90;;;;;;6302882;22;20171;-93
2022/02/02 14:09:30;;;;;;;1.70;1.33;;;1.00;99.90;;;;;;6303119;22;20171;-94
2022/02/02 14:31:05;;;;;;;2.00;1.27;;;1.00;99.90;;;;;;6303074;22;20166;-94
2022/02/02 14:31:55;;;;;;;1.27;1.10;;;1.00;99.90;;;;;;6252491;22;20166;-93
2022/02/02 14:34:46;;;;;;;1.23;0.97;;;1.10;99.90;;;;;;6300780;22;20254;-94
2022/02/02 14:37:23;;;;;;;2.70;1.20;;;1.10;99.90;;;;;;6297757;22;20171;-93
2022/02/02 14:40:25;;;;;;;2.03;1.33;;;1.10;99.90;;;;;;6292511;22;20273;-93
2022/02/02 14:42:59;;;;;;;1.17;0.80;;;1.10;99.90;;;;;;6288646;22;20172;-93
2022/02/02 14:45:34;;;;;;;1.73;1.20;;;1.10;99.90;;;;;;6289845;22;20171;-92
2022/02/02 14:48:11;;;;;;;1.80;1.10;;;1.20;99.90;;;;;;6288436;22;20198;-92
2022/02/02 14:50:54;;;;;;;2.27;1.20;;;1.10;99.90;;;;;;6290342;22;20167;-92
2022/02/02 14:53:55;;;;;;;1.27;0.93;;;1.20;99.90;;;;;;6291155;22;20210;-93
2022/02/02 14:56:53;;;;;;;1.57;1.20;;;1.20;99.90;;;;;;6291191;22;20175;-94
2022/02/02 15:06:03;;;;;;;2.00;1.07;;;1.10;99.90;;;;;;6176276;22;20182;-95
2022/02/02 15:26:19;;;;;;;1.13;0.97;;;1.30;99.90;;;;;;6292573;22;20479;-94
2022/02/02 15:29:05;;;;;;;2.13;1.07;;;1.20;99.90;;;;;;6273303;22;20219;-93
2022/02/02 15:31:37;;;;;;;1.10;0.97;;;1.10;99.90;;;;;;6266340;23;20168;-94
2022/02/02 15:34:33;;;;;;;1.53;0.90;;;1.00;99.90;;;;;;6267378;23;20223;-94
2022/02/02 15:40:11;;;;;;;1.50;1.20;;;1.10;99.90;;;;;;6264861;22;20176;-94
2022/02/02 16:02:43;;;;;;;1.37;0.90;;;1.20;99.90;;;;;;6269273;23;20178;-94
2022/02/02 16:05:21;;;;;;;1.57;1.00;;;1.20;99.90;;;;;;6267272;23;20182;-93
2022/02/02 16:07:56;;;;;;;1.30;1.00;;;1.30;99.90;;;;;;6266754;23;20183;-92
2022/02/02 16:10:41;;;;;;;1.40;1.10;;;1.30;99.90;;;;;;6242447;23;20175;-94
2022/02/02 16:13:30;;;;;;;2.37;1.27;;;1.40;99.90;;;;;;6268663;23;20175;-94
2022/02/02 16:16:12;;;;;;;1.30;1.10;;;1.40;99.90;;;;;;6267357;23;20168;-96
2022/02/02 16:18:52;;;;;;;1.97;1.40;;;1.50;99.90;;;;;;6271438;23;20172;-94
2022/02/02 16:38:18;;;;;;;18.60;2.70;;;1.70;99.90;;;;;;6301855;22;20211;-93
2022/02/02 16:40:52;;;;;;;22.97;3.83;;;1.80;99.90;;;;;;6302755;22;20177;-92
2022/02/02 16:43:23;;;;;;;28.53;3.67;;;1.90;99.90;;;;;;6299308;22;20229;-92
2022/02/02 16:45:55;;;;;;;14.13;2.57;;;1.90;99.90;;;;;;6264068;22;20217;-92
2022/02/02 16:48:26;;;;;;;10.63;2.40;;;1.90;99.90;;;;;;6285883;22;20198;-92
2022/02/02 16:51:04;;;;;;;7.03;1.60;;;1.90;99.90;;;;;;6288681;22;20198;-93
2022/02/02 16:53:42;;;;;;;3.37;1.33;;;1.90;99.90;;;;;;6300453;22;20190;-93
2022/02/02 16:56:26;;;;;;;2.43;1.27;;;1.90;99.90;;;;;;6293425;22;20545;-93
2022/02/02 17:25:03;;;;;;;1.47;1.20;;;2.30;99.90;;;;;;6297303;22;20163;-93
2022/02/02 17:33:14;;;;;;;2.83;1.10;;;2.20;99.90;;;;;;6291975;22;20206;-94
2022/02/02 17:36:03;;;;;;;1.17;1.00;;;2.30;99.90;;;;;;6284602;22;20193;-93
2022/02/02 17:38:46;;;;;;;1.20;1.00;;;2.30;99.90;;;;;;6281665;22;20167;-92
2022/02/02 17:44:15;;;;;;;1.60;1.03;;;2.50;99.90;;;;;;6281674;22;20195;-94
2022/02/02 18:12:26;;;;;;;2.07;1.00;;;2.70;99.90;;;;;;6283768;22;20521;-93
2022/02/02 18:20:55;;;;;;;1.43;0.80;;;3.20;99.90;;;;;;6283486;22;20221;-92
2022/02/02 18:23:31;;;;;;;1.73;0.90;;;3.30;99.90;;;;;;6285262;22;20203;-92
2022/02/02 18:26:12;;;;;;;1.27;0.87;;;3.40;99.90;;;;;;6284325;22;20166;-92
2022/02/02 18:28:50;;;;;;;2.13;0.90;;;3.30;99.90;;;;;;6284299;22;20183;-92
2022/02/02 18:31:43;;;;;;;1.00;0.80;;;3.30;99.90;;;;;;6284363;22;20182;-92
2022/02/02 18:34:24;;;;;;;1.10;0.80;;;3.30;99.90;;;;;;6285910;22;20221;-95
2022/02/02 18:37:11;;;;;;;1.77;0.80;;;3.10;99.90;;;;;;6287697;22;20208;-96
2022/02/02 18:46:13;;;;;;;1.50;0.80;;;3.00;99.90;;;;;;6238483;22;20163;-94
2022/02/02 18:48:45;;;;;;;1.30;0.90;;;3.20;99.90;;;;;;6288821;22;20213;-94
2022/02/02 18:51:59;;;;;;;1.63;0.93;;;3.30;99.90;;;;;;6289623;22;20166;-94
2022/02/02 18:54:42;;;;;;;2.43;0.70;;;3.30;99.90;;;;;;6285679;22;20183;-93
2022/02/02 18:57:30;;;;;;;1.77;1.10;;;3.20;99.90;;;;;;6258539;22;20618;-93
2022/02/02 19:06:02;;;;;;;1.00;0.60;;;3.50;99.90;;;;;;6209641;22;20182;-93
2022/02/02 19:56:45;;;;;;;1.33;0.70;;;4.00;99.90;;;;;;6288520;22;20285;-92
2022/02/02 20:02:26;;;;;;;1.57;1.13;;;4.30;99.90;;;;;;6286519;22;20175;-92
2022/02/02 20:05:14;;;;;;;1.93;0.83;;;4.40;99.90;;;;;;6298285;22;20185;-92
2022/02/02 20:08:07;;;;;;;1.33;0.90;;;4.50;99.90;;;;;;6290455;22;20183;-92
2022/02/02 20:10:58;;;;;;;1.00;0.80;;;4.70;99.90;;;;;;6294938;22;20191;-91
2022/02/02 20:16:14;;;;;;;2.60;1.00;;;4.80;99.90;;;;;;6296002;22;20221;-92
2022/02/02 20:18:48;;;;;;;0.90;0.63;;;4.90;99.90;;;;;;6294639;22;20205;-91
2022/02/02 20:21:23;;;;;;;2.53;0.90;;;4.80;99.90;;;;;;6294126;22;20171;-91
2022/02/02 20:23:54;;;;;;;1.47;1.00;;;4.80;99.90;;;;;;6278247;22;20230;-92
2022/02/02 20:26:28;;;;;;;1.07;0.77;;;4.90;99.90;;;;;;6290978;22;20497;-92
2022/02/02 20:29:02;;;;;;;0.93;0.80;;;4.90;99.90;;;;;;6294074;22;20166;-92
2022/02/02 20:31:35;;;;;;;1.40;0.80;;;4.70;99.90;;;;;;6293468;22;20195;-92
2022/02/02 20:34:06;;;;;;;1.10;0.80;;;4.60;99.90;;;;;;6286307;22;20190;-92
2022/02/02 20:36:39;;;;;;;1.20;0.90;;;4.60;99.90;;;;;;6263958;22;20613;-92
2022/02/02 20:39:30;;;;;;;0.80;0.80;;;4.70;99.90;;;;;;6293777;22;20178;-92
2022/02/02 20:42:04;;;;;;;1.30;0.70;;;4.70;99.90;;;;;;6295007;22;20179;-93
2022/02/02 21:04:23;;;;;;;1.50;0.90;;;4.80;99.90;;;;;;5050834;28;20204;-92
2022/02/02 21:07:11;;;;;;;1.60;1.17;;;4.90;99.90;;;;;;5064292;28;20665;-91
2022/02/02 21:09:54;;;;;;;2.73;0.93;;;4.90;99.90;;;;;;5073586;28;20212;-93
2022/02/02 21:15:15;;;;;;;3.90;1.13;;;4.80;99.90;;;;;;5114216;28;20218;-93
2022/02/02 21:17:46;;;;;;;1.73;1.40;;;4.70;99.90;;;;;;5097898;28;20207;-93
2022/02/02 21:20:25;;;;;;;1.27;0.90;;;4.50;99.90;;;;;;5109467;28;20262;-92
2022/02/02 21:23:02;;;;;;;3.23;1.30;;;4.70;99.90;;;;;;5104843;28;20199;-91
2022/02/02 21:25:46;;;;;;;4.40;1.30;;;4.80;99.90;;;;;;5107225;28;20254;-91
2022/02/02 21:28:18;;;;;;;3.83;1.20;;;4.90;99.90;;;;;;5107605;28;20215;-92
2022/02/02 21:30:58;;;;;;;0.83;0.80;;;4.80;99.90;;;;;;5088490;28;20221;-92
2022/02/02 21:33:30;;;;;;;1.47;1.00;;;4.60;99.90;;;;;;5106208;28;20235;-93
2022/02/02 21:36:04;;;;;;;2.83;1.00;;;4.60;99.90;;;;;;5106586;28;20211;-93
2022/02/02 21:38:43;;;;;;;3.17;1.17;;;4.60;99.90;;;;;;5104752;28;20229;-93
2022/02/02 21:41:17;;;;;;;2.27;1.10;;;4.80;99.90;;;;;;5084853;28;20332;-93
2022/02/02 21:43:48;;;;;;;1.00;0.90;;;4.90;99.90;;;;;;5107549;28;20269;-93
2022/02/02 21:46:22;;;;;;;2.30;1.03;;;5.00;99.90;;;;;;5105003;28;20253;-92
2022/02/02 21:48:54;;;;;;;3.77;1.07;;;4.90;99.90;;;;;;5113987;28;20198;-94
2022/02/02 21:51:32;;;;;;;1.83;0.87;;;5.00;99.90;;;;;;5114019;28;20194;-93
2022/02/02 21:54:08;;;;;;;1.60;0.90;;;5.20;99.90;;;;;;5113594;28;20218;-92
2022/02/02 21:56:40;;;;;;;1.40;0.80;;;5.30;99.90;;;;;;5108417;28;20229;-92
2022/02/02 21:59:11;;;;;;;2.10;0.90;;;5.10;99.90;;;;;;5093466;28;20216;-92
2022/02/02 22:01:44;;;;;;;2.33;0.80;;;5.00;99.90;;;;;;5095455;28;20211;-92
2022/02/02 22:04:17;;;;;;;3.17;1.10;;;4.90;99.90;;;;;;5091160;28;20221;-92
2022/02/02 22:06:50;;;;;;;1.53;0.83;;;4.90;99.90;;;;;;5089582;28;20295;-91
2022/02/02 22:09:21;;;;;;;1.47;0.70;;;5.00;99.90;;;;;;5081132;28;20208;-92
2022/02/02 22:11:52;;;;;;;1.03;0.93;;;4.90;99.90;;;;;;5082446;28;20223;-92
2022/02/02 22:14:26;;;;;;;1.83;0.97;;;5.00;99.90;;;;;;5091759;28;20215;-91
2022/02/02 22:17:00;;;;;;;1.63;1.10;;;5.10;99.90;;;;;;5093398;28;20202;-91
2022/02/02 22:19:32;;;;;;;2.00;1.00;;;5.20;99.90;;;;;;5088748;28;20250;-92
2022/02/02 22:22:05;;;;;;;1.20;0.90;;;5.10;99.90;;;;;;5073048;28;20219;-92
2022/02/02 22:24:38;;;;;;;2.80;1.00;;;5.00;99.90;;;;;;5097034;28;20203;-93
2022/02/02 22:27:12;;;;;;;1.40;1.00;;;5.00;99.90;;;;;;5095850;28;20203;-92
2022/02/02 22:32:29;;;;;;;2.03;1.33;;;5.10;99.90;;;;;;5094803;28;20208;-92
2022/02/02 22:35:01;;;;;;;1.63;1.30;;;5.10;99.90;;;;;;5090232;28;20208;-92
2022/02/02 22:37:38;;;;;;;2.90;1.13;;;5.00;99.90;;;;;;5093948;28;20216;-91
2022/02/02 22:40:14;;;;;;;1.30;1.00;;;5.00;99.90;;;;;;5080167;28;20234;-92
2022/02/02 22:42:46;;;;;;;2.23;1.17;;;5.10;99.90;;;;;;5093978;28;20196;-92
2022/02/02 22:45:17;;;;;;;2.03;1.40;;;5.10;99.90;;;;;;5078773;28;20227;-92